Time;durP1;ratioP1;P1;durP2;ratioP2;P2;SDS_P1;SDS_P2;PMS_P1;PMS_P2;Temp;Humidity;BMP_temperature;BMP_pressure;BME280_temperature;BME280_humidity;BME280_pressure;Samples;Min_cycle;Max_cycle;Signal;HPM_P1;HPM_P2
2023/12/06 00:01:24;;;;;;;80.70;42.53;;;1.80;99.90;;;;;;5074318;28;20072;-87
2023/12/06 00:03:49;;;;;;;89.77;43.40;;;1.70;99.90;;;;;;5075110;28;20131;-87
2023/12/06 00:06:15;;;;;;;69.30;40.77;;;1.80;99.90;;;;;;5075774;28;20040;-86
2023/12/06 00:08:41;;;;;;;84.93;43.23;;;1.80;99.90;;;;;;5074876;28;20101;-87
2023/12/06 00:11:06;;;;;;;77.80;41.47;;;1.80;99.90;;;;;;5075952;28;20500;-86
2023/12/06 00:13:32;;;;;;;86.97;41.43;;;1.80;99.90;;;;;;5075668;28;20049;-87
2023/12/06 00:15:58;;;;;;;67.40;39.30;;;1.80;99.90;;;;;;5075518;28;20102;-87
2023/12/06 00:18:23;;;;;;;88.17;43.37;;;1.80;99.90;;;;;;5074554;28;20475;-86
2023/12/06 00:20:49;;;;;;;73.93;40.93;;;1.80;99.90;;;;;;5074558;28;20051;-87
2023/12/06 00:23:15;;;;;;;77.00;41.03;;;1.80;99.90;;;;;;5074564;28;20052;-87
2023/12/06 00:25:40;;;;;;;69.13;39.20;;;1.80;99.90;;;;;;5075557;28;20051;-87
2023/12/06 00:28:06;;;;;;;67.87;39.13;;;1.80;99.90;;;;;;5074588;28;20406;-88
2023/12/06 00:30:32;;;;;;;75.13;40.47;;;1.90;99.90;;;;;;5075408;28;20063;-88
2023/12/06 00:32:57;;;;;;;80.70;41.00;;;1.80;99.90;;;;;;5074368;28;20048;-87
2023/12/06 00:35:23;;;;;;;87.37;41.50;;;1.90;99.90;;;;;;5074002;28;20124;-87
2023/12/06 00:37:49;;;;;;;94.13;42.67;;;1.90;99.90;;;;;;5075579;28;20469;-88
2023/12/06 00:40:14;;;;;;;74.63;39.80;;;1.90;99.90;;;;;;5057111;28;20044;-87
2023/12/06 00:42:40;;;;;;;69.37;38.13;;;1.80;99.90;;;;;;5075185;28;20059;-87
2023/12/06 00:45:06;;;;;;;67.17;38.27;;;1.90;99.90;;;;;;5075234;28;20049;-88
2023/12/06 00:47:32;;;;;;;84.55;41.95;;;1.80;99.90;;;;;;5074916;28;20431;-87
2023/12/06 00:49:58;;;;;;;65.40;38.27;;;1.80;99.90;;;;;;5074655;28;20052;-87
2023/12/06 00:52:23;;;;;;;93.67;42.57;;;1.90;99.90;;;;;;5072971;28;20048;-87
2023/12/06 00:54:49;;;;;;;97.20;42.23;;;1.90;99.90;;;;;;5072571;28;20135;-87
2023/12/06 00:57:15;;;;;;;79.03;41.07;;;2.00;99.90;;;;;;5071733;28;20054;-87
2023/12/06 00:59:41;;;;;;;82.20;40.78;;;1.90;99.90;;;;;;5071751;28;20457;-88
2023/12/06 01:02:07;;;;;;;70.43;39.00;;;1.90;99.90;;;;;;5071228;28;20044;-88
2023/12/06 01:04:37;;;;;;;91.22;42.95;;;1.90;99.90;;;;;;5072750;28;20095;-87
2023/12/06 01:07:03;;;;;;;75.25;39.47;;;2.00;99.90;;;;;;5072873;28;20036;-88
2023/12/06 01:09:29;;;;;;;71.03;38.33;;;1.90;99.90;;;;;;5074096;28;20048;-88
2023/12/06 01:11:54;;;;;;;64.83;37.47;;;2.00;99.90;;;;;;5074323;28;20056;-88
2023/12/06 01:14:22;;;;;;;58.57;36.37;;;1.90;99.90;;;;;;5074308;28;20139;-88
2023/12/06 01:16:48;;;;;;;63.65;37.08;;;2.00;99.90;;;;;;5073123;28;20060;-89
2023/12/06 01:19:15;;;;;;;76.03;39.13;;;2.00;99.90;;;;;;5074359;28;20040;-89
2023/12/06 01:21:41;;;;;;;80.65;39.90;;;2.00;99.90;;;;;;5074114;28;20054;-89
2023/12/06 01:24:06;;;;;;;61.20;36.70;;;2.00;99.90;;;;;;5074279;28;20378;-88
2023/12/06 01:26:32;;;;;;;65.47;37.17;;;2.00;99.90;;;;;;5074121;28;20158;-89
2023/12/06 01:28:59;;;;;;;64.22;36.00;;;2.00;99.90;;;;;;5073248;28;20055;-87
2023/12/06 01:31:25;;;;;;;56.42;36.17;;;2.10;99.90;;;;;;5074107;28;20127;-88
2023/12/06 01:33:50;;;;;;;60.50;35.97;;;2.00;99.90;;;;;;5072897;28;20588;-86
2023/12/06 01:36:16;;;;;;;75.37;39.53;;;2.00;99.90;;;;;;5074944;28;20051;-87
2023/12/06 01:38:42;;;;;;;72.03;37.17;;;2.00;99.90;;;;;;5085511;28;20131;-87
2023/12/06 01:41:12;;;;;;;66.68;35.53;;;2.00;99.90;;;;;;5073150;28;20055;-89
2023/12/06 01:43:42;;;;;;;59.40;35.33;;;2.00;99.90;;;;;;5073977;28;20048;-89
2023/12/06 01:46:08;;;;;;;54.28;34.13;;;2.10;99.90;;;;;;5072763;28;20087;-90
2023/12/06 01:48:34;;;;;;;65.50;36.90;;;2.10;99.90;;;;;;5072766;28;20075;-89
2023/12/06 01:51:01;;;;;;;55.17;33.92;;;2.00;99.90;;;;;;5074034;28;20071;-90
2023/12/06 01:53:26;;;;;;;58.47;33.40;;;2.00;99.90;;;;;;5073519;28;20471;-89
2023/12/06 01:55:52;;;;;;;57.13;34.43;;;1.90;99.90;;;;;;5073892;28;20068;-89
2023/12/06 01:58:18;;;;;;;65.03;34.33;;;2.00;99.90;;;;;;5074050;28;20098;-89
2023/12/06 02:00:45;;;;;;;59.28;34.85;;;2.10;99.90;;;;;;5073485;28;20069;-89
2023/12/06 02:03:12;;;;;;;54.15;33.72;;;2.00;99.90;;;;;;5073883;28;20060;-89
2023/12/06 02:05:37;;;;;;;64.15;34.42;;;2.10;99.90;;;;;;5073614;28;20127;-89
2023/12/06 02:08:06;;;;;;;56.83;33.37;;;2.10;99.90;;;;;;5073952;28;20488;-89
2023/12/06 02:10:32;;;;;;;59.40;35.20;;;2.10;99.90;;;;;;5073200;28;20048;-89
2023/12/06 02:12:58;;;;;;;59.65;33.13;;;2.10;99.90;;;;;;5056113;28;20377;-89
2023/12/06 02:15:24;;;;;;;53.77;31.90;;;2.20;99.90;;;;;;5073476;28;20044;-88
2023/12/06 02:17:51;;;;;;;58.20;34.20;;;2.20;99.90;;;;;;5072329;28;20048;-88
2023/12/06 02:20:17;;;;;;;46.25;30.95;;;2.10;99.90;;;;;;5073722;28;20066;-89
2023/12/06 02:22:43;;;;;;;60.10;33.53;;;2.10;99.90;;;;;;5055279;28;20056;-89
2023/12/06 02:25:20;;;;;;;48.83;31.30;;;2.20;99.90;;;;;;5073454;28;20040;-88
2023/12/06 02:27:46;;;;;;;52.70;32.28;;;2.20;99.90;;;;;;5055230;28;20048;-88
2023/12/06 02:30:12;;;;;;;55.70;32.90;;;2.30;99.90;;;;;;5039155;28;20055;-88
2023/12/06 02:32:38;;;;;;;65.45;33.72;;;2.10;99.90;;;;;;5073197;28;20044;-88
2023/12/06 02:35:13;;;;;;;48.50;30.73;;;2.10;99.90;;;;;;5073277;28;20123;-88
2023/12/06 02:37:39;;;;;;;52.70;30.73;;;2.20;99.90;;;;;;5073231;28;20059;-88
2023/12/06 02:40:09;;;;;;;49.72;31.42;;;2.30;99.90;;;;;;5073246;28;20070;-88
2023/12/06 02:42:35;;;;;;;51.83;30.65;;;2.10;99.90;;;;;;5072030;28;20040;-88
2023/12/06 02:45:02;;;;;;;52.57;32.07;;;2.10;99.90;;;;;;5072018;28;20507;-88
2023/12/06 02:47:28;;;;;;;52.55;30.85;;;2.20;99.90;;;;;;5073023;28;20131;-88
2023/12/06 02:49:53;;;;;;;40.87;28.57;;;2.20;99.90;;;;;;5072998;28;20087;-88
2023/12/06 02:52:19;;;;;;;53.23;31.40;;;2.10;99.90;;;;;;5071581;28;20037;-87
2023/12/06 02:54:45;;;;;;;68.03;34.13;;;2.20;99.90;;;;;;5053593;28;20091;-87
2023/12/06 02:57:11;;;;;;;54.77;32.73;;;2.10;99.90;;;;;;5069902;28;20107;-88
2023/12/06 02:59:36;;;;;;;44.90;29.77;;;2.20;99.90;;;;;;5070978;28;20409;-88
2023/12/06 03:02:02;;;;;;;56.50;34.27;;;2.20;99.90;;;;;;5070890;28;20340;-87
2023/12/06 03:04:28;;;;;;;57.72;32.53;;;2.20;99.90;;;;;;5071472;28;20131;-87
2023/12/06 03:06:54;;;;;;;58.93;33.27;;;2.20;99.90;;;;;;5069887;28;20178;-86
2023/12/06 03:09:20;;;;;;;63.73;34.00;;;2.20;99.90;;;;;;5072263;28;20139;-88
2023/12/06 03:11:45;;;;;;;56.47;33.80;;;2.20;99.90;;;;;;5072910;28;20477;-87
2023/12/06 03:14:11;;;;;;;57.33;34.50;;;2.20;99.90;;;;;;5055285;28;20049;-87
2023/12/06 03:16:36;;;;;;;70.57;35.80;;;2.20;99.90;;;;;;5071297;28;20497;-87
2023/12/06 03:19:02;;;;;;;70.67;36.13;;;2.20;99.90;;;;;;5072861;28;20045;-88
2023/12/06 03:21:28;;;;;;;80.23;38.73;;;2.20;99.90;;;;;;5072760;28;20131;-86
2023/12/06 03:23:54;;;;;;;71.57;36.70;;;2.20;99.90;;;;;;5073712;28;20141;-88
2023/12/06 03:26:20;;;;;;;66.63;35.60;;;2.20;99.90;;;;;;5076550;28;20157;-88
2023/12/06 03:28:46;;;;;;;66.73;35.47;;;2.30;99.90;;;;;;5076411;28;20091;-88
2023/12/06 03:31:11;;;;;;;68.77;36.07;;;2.20;99.90;;;;;;5075588;28;20052;-88
2023/12/06 03:33:37;;;;;;;66.83;34.97;;;2.30;99.90;;;;;;5075005;28;20127;-88
2023/12/06 03:36:03;;;;;;;63.13;34.53;;;2.20;99.90;;;;;;5075487;28;20052;-89
2023/12/06 03:38:29;;;;;;;69.50;37.00;;;2.30;99.90;;;;;;5058967;28;20044;-89
2023/12/06 03:40:54;;;;;;;51.23;32.70;;;2.30;99.90;;;;;;5076556;28;20052;-88
2023/12/06 03:43:20;;;;;;;68.33;35.43;;;2.20;99.90;;;;;;5075730;28;20625;-88
2023/12/06 03:45:46;;;;;;;61.67;33.97;;;2.40;99.90;;;;;;5075019;28;20101;-88
2023/12/06 03:48:11;;;;;;;61.17;34.90;;;2.30;99.90;;;;;;5075349;28;20090;-88
2023/12/06 03:50:37;;;;;;;69.70;36.13;;;2.30;99.90;;;;;;5058449;28;20071;-89
2023/12/06 03:53:03;;;;;;;68.87;35.90;;;2.40;99.90;;;;;;5076261;28;20051;-87
2023/12/06 03:55:28;;;;;;;55.37;32.83;;;2.30;99.90;;;;;;5078469;28;20530;-88
2023/12/06 03:57:54;;;;;;;73.37;37.03;;;2.30;99.90;;;;;;5074718;28;20585;-87
2023/12/06 04:00:20;;;;;;;59.93;33.23;;;2.30;99.90;;;;;;5075555;28;20048;-87
2023/12/06 04:02:46;;;;;;;56.63;33.10;;;2.30;99.90;;;;;;5057714;28;20174;-88
2023/12/06 04:05:12;;;;;;;76.00;36.27;;;2.30;99.90;;;;;;5074939;28;20052;-88
2023/12/06 04:07:39;;;;;;;83.07;37.00;;;2.30;99.90;;;;;;5075755;28;20044;-88
2023/12/06 04:10:05;;;;;;;53.72;32.67;;;2.30;99.90;;;;;;5075938;28;20127;-88
2023/12/06 04:12:31;;;;;;;56.47;33.20;;;2.30;99.90;;;;;;5076000;28;20052;-87
2023/12/06 04:14:57;;;;;;;70.80;36.83;;;2.30;99.90;;;;;;5075561;28;20044;-88
2023/12/06 04:17:22;;;;;;;73.93;36.40;;;2.30;99.90;;;;;;5074623;28;20044;-87
2023/12/06 04:19:48;;;;;;;62.00;33.70;;;2.30;99.90;;;;;;5057807;28;20131;-87
2023/12/06 04:22:13;;;;;;;66.03;34.60;;;2.40;99.90;;;;;;5074479;28;20049;-88
2023/12/06 04:24:39;;;;;;;64.87;34.07;;;2.30;99.90;;;;;;5074501;28;20130;-89
2023/12/06 04:27:06;;;;;;;62.77;33.50;;;2.40;99.90;;;;;;5074482;28;20048;-89
2023/12/06 04:29:32;;;;;;;56.03;33.17;;;2.40;99.90;;;;;;5075597;28;20049;-89
2023/12/06 04:31:57;;;;;;;71.33;34.10;;;2.30;99.90;;;;;;5057586;28;20067;-89
2023/12/06 04:34:23;;;;;;;61.20;33.10;;;2.40;99.90;;;;;;5057518;28;20071;-89
2023/12/06 04:36:49;;;;;;;67.17;33.87;;;2.40;99.90;;;;;;5075280;28;20132;-89
2023/12/06 04:39:14;;;;;;;52.97;32.70;;;2.40;99.90;;;;;;5074394;28;20481;-90
2023/12/06 04:41:40;;;;;;;63.70;34.37;;;2.40;99.90;;;;;;5074343;28;20091;-89
2023/12/06 04:44:06;;;;;;;61.07;33.83;;;2.40;99.90;;;;;;5075638;28;20488;-89
2023/12/06 04:46:32;;;;;;;68.10;34.57;;;2.40;99.90;;;;;;5075097;28;20094;-90
2023/12/06 04:48:57;;;;;;;62.33;33.73;;;2.40;99.90;;;;;;5073838;28;20049;-90
2023/12/06 04:51:23;;;;;;;64.77;34.67;;;2.40;99.90;;;;;;5074396;28;20083;-90
2023/12/06 04:53:50;;;;;;;51.80;30.07;;;2.40;99.90;;;;;;5074762;28;20049;-90
2023/12/06 04:56:15;;;;;;;50.88;31.42;;;2.50;99.90;;;;;;5075120;28;20040;-90
2023/12/06 04:58:41;;;;;;;55.17;31.17;;;2.50;99.90;;;;;;5074043;28;20102;-90
2023/12/06 05:01:08;;;;;;;44.33;27.80;;;2.40;99.90;;;;;;5074472;28;20064;-90
2023/12/06 05:03:34;;;;;;;48.60;29.23;;;2.40;99.90;;;;;;5074060;28;20053;-90
2023/12/06 05:05:59;;;;;;;44.97;29.27;;;2.30;99.90;;;;;;5074789;28;20055;-90
2023/12/06 05:08:25;;;;;;;44.00;28.10;;;2.40;99.90;;;;;;5074971;28;20048;-90
2023/12/06 05:10:51;;;;;;;52.90;30.43;;;2.40;99.90;;;;;;5073591;28;20503;-91
2023/12/06 05:13:17;;;;;;;42.70;27.70;;;2.40;99.90;;;;;;5074757;28;20048;-90
2023/12/06 05:15:43;;;;;;;53.60;29.00;;;2.50;99.90;;;;;;5075012;28;20046;-90
2023/12/06 05:18:09;;;;;;;56.40;31.13;;;2.50;99.90;;;;;;5074473;28;20514;-90
2023/12/06 05:20:34;;;;;;;47.73;28.23;;;2.40;99.90;;;;;;5074863;28;20041;-90
2023/12/06 05:23:00;;;;;;;63.70;32.33;;;2.50;99.90;;;;;;5056901;28;20412;-90
2023/12/06 05:25:26;;;;;;;49.03;28.00;;;2.50;99.90;;;;;;5074779;28;20127;-90
2023/12/06 05:27:52;;;;;;;46.57;28.10;;;2.50;99.90;;;;;;5073076;28;20369;-89
2023/12/06 05:30:18;;;;;;;55.65;29.10;;;2.50;99.90;;;;;;5074464;28;20048;-90
2023/12/06 05:32:43;;;;;;;59.27;31.43;;;2.50;99.90;;;;;;5074011;28;20464;-89
2023/12/06 05:35:09;;;;;;;46.50;27.93;;;2.50;99.90;;;;;;5073116;28;20044;-91
2023/12/06 05:37:35;;;;;;;53.87;30.00;;;2.50;99.90;;;;;;5073487;28;20141;-90
2023/12/06 05:40:00;;;;;;;54.10;28.90;;;2.50;99.90;;;;;;5073814;28;20445;-90
2023/12/06 05:42:26;;;;;;;52.13;29.57;;;2.50;99.90;;;;;;5074214;28;20127;-91
2023/12/06 05:44:52;;;;;;;60.50;30.70;;;2.50;99.90;;;;;;5073571;28;20048;-91
2023/12/06 05:47:18;;;;;;;57.33;30.63;;;2.50;99.90;;;;;;5055647;28;20048;-90
2023/12/06 05:49:44;;;;;;;37.93;24.90;;;2.50;99.90;;;;;;5073936;28;20110;-90
2023/12/06 05:52:09;;;;;;;52.37;27.57;;;2.50;99.90;;;;;;5073161;28;20072;-90
2023/12/06 05:54:35;;;;;;;63.20;31.10;;;2.50;99.90;;;;;;5073180;28;20542;-91
2023/12/06 05:57:01;;;;;;;52.63;29.70;;;2.50;99.90;;;;;;5073912;28;20051;-91
2023/12/06 05:59:27;;;;;;;72.10;32.27;;;2.50;99.90;;;;;;5072377;28;20040;-90
2023/12/06 06:01:53;;;;;;;48.65;27.67;;;2.50;99.90;;;;;;5073836;28;20099;-91
2023/12/06 06:04:18;;;;;;;52.83;28.23;;;2.50;99.90;;;;;;5056691;28;20091;-91
2023/12/06 06:06:44;;;;;;;38.27;25.80;;;2.50;99.90;;;;;;5074125;28;20052;-91
2023/12/06 06:09:10;;;;;;;46.07;27.13;;;2.50;99.90;;;;;;5079013;28;20032;-90
2023/12/06 06:11:35;;;;;;;61.47;29.47;;;2.50;99.90;;;;;;5074044;28;20076;-91
2023/12/06 06:14:01;;;;;;;56.00;29.50;;;2.50;99.90;;;;;;5073847;28;20052;-92
2023/12/06 06:16:27;;;;;;;60.30;29.83;;;2.50;99.90;;;;;;5073042;28;20105;-92
2023/12/06 06:18:52;;;;;;;47.07;26.77;;;2.50;99.90;;;;;;5073811;28;20048;-91
2023/12/06 06:21:19;;;;;;;40.90;25.10;;;2.60;99.90;;;;;;5072931;28;20040;-90
2023/12/06 06:23:45;;;;;;;65.72;30.73;;;2.50;99.90;;;;;;5073813;28;20055;-90
2023/12/06 06:26:11;;;;;;;49.08;27.90;;;2.60;99.90;;;;;;5055600;28;20399;-90
2023/12/06 06:28:37;;;;;;;43.80;27.03;;;2.50;99.90;;;;;;5073707;28;20232;-91
2023/12/06 06:31:03;;;;;;;44.07;26.13;;;2.60;99.90;;;;;;5073605;28;20286;-91
2023/12/06 06:33:30;;;;;;;45.75;25.90;;;2.60;99.90;;;;;;5073838;28;20396;-90
2023/12/06 06:35:55;;;;;;;37.83;23.48;;;2.60;99.90;;;;;;5073357;28;20054;-90
2023/12/06 06:38:21;;;;;;;51.17;27.27;;;2.60;99.90;;;;;;5072741;28;20135;-91
2023/12/06 06:40:47;;;;;;;52.10;28.47;;;2.50;99.90;;;;;;5073822;28;20048;-91
2023/12/06 06:43:13;;;;;;;58.70;30.73;;;2.60;99.90;;;;;;5072342;28;20052;-90
2023/12/06 06:45:42;;;;;;;59.47;30.13;;;2.60;99.90;;;;;;5073325;28;20048;-91
2023/12/06 06:48:09;;;;;;;50.33;27.48;;;2.60;99.90;;;;;;5073251;28;20053;-91
2023/12/06 06:50:35;;;;;;;38.45;25.75;;;2.50;99.90;;;;;;5073539;28;20048;-91
2023/12/06 06:53:01;;;;;;;50.40;26.15;;;2.60;99.90;;;;;;5072428;28;20049;-90
2023/12/06 06:55:27;;;;;;;35.30;24.40;;;2.60;99.90;;;;;;5072564;28;20178;-91
2023/12/06 06:57:53;;;;;;;48.20;26.30;;;2.60;99.90;;;;;;5057864;28;20060;-91
2023/12/06 07:00:20;;;;;;;52.92;27.83;;;2.60;99.90;;;;;;5076267;28;20044;-90
2023/12/06 07:02:47;;;;;;;38.22;24.65;;;2.60;99.90;;;;;;5076569;28;20068;-91
2023/12/06 07:05:15;;;;;;;47.45;26.50;;;2.60;99.90;;;;;;5059471;28;20050;-91
2023/12/06 07:07:44;;;;;;;41.53;25.35;;;2.60;99.90;;;;;;5076279;28;20053;-91
2023/12/06 07:10:16;;;;;;;32.45;22.58;;;2.70;99.90;;;;;;5077335;28;20037;-90
2023/12/06 07:12:41;;;;;;;35.90;23.85;;;2.70;99.90;;;;;;5077344;28;20055;-90
2023/12/06 07:15:14;;;;;;;31.40;23.40;;;2.70;99.90;;;;;;5075778;28;20040;-91
2023/12/06 07:17:42;;;;;;;31.50;21.98;;;2.70;99.90;;;;;;5076425;28;20056;-91
2023/12/06 07:20:11;;;;;;;32.55;22.70;;;2.70;99.90;;;;;;5075795;28;20049;-91
2023/12/06 07:22:37;;;;;;;38.78;23.75;;;2.70;99.90;;;;;;5076127;28;20047;-91
2023/12/06 07:25:04;;;;;;;34.53;22.63;;;2.70;99.90;;;;;;5075863;28;20117;-91
2023/12/06 07:27:30;;;;;;;27.17;20.98;;;2.70;99.90;;;;;;5077195;28;20055;-91
2023/12/06 07:29:55;;;;;;;40.20;24.17;;;2.70;99.90;;;;;;5059321;28;20385;-91
2023/12/06 07:32:21;;;;;;;36.80;24.20;;;2.70;99.90;;;;;;5059335;28;20083;-91
2023/12/06 07:34:47;;;;;;;33.10;22.47;;;2.80;99.90;;;;;;5075772;28;20044;-90
2023/12/06 07:37:13;;;;;;;39.67;24.88;;;2.70;99.90;;;;;;5075585;28;20040;-91
2023/12/06 07:39:39;;;;;;;32.13;21.13;;;2.80;99.90;;;;;;5083841;28;20477;-91
2023/12/06 07:42:04;;;;;;;39.83;24.40;;;2.80;99.90;;;;;;5088902;28;20041;-91
2023/12/06 07:44:30;;;;;;;45.90;26.47;;;2.70;99.90;;;;;;5082935;28;20135;-91
2023/12/06 07:46:56;;;;;;;39.77;24.50;;;2.80;99.90;;;;;;5077091;28;20473;-91
2023/12/06 07:49:21;;;;;;;34.73;23.57;;;2.80;99.90;;;;;;5077068;28;20048;-92
2023/12/06 07:51:47;;;;;;;40.53;25.53;;;2.80;99.90;;;;;;5075690;28;20441;-91
2023/12/06 07:54:14;;;;;;;41.47;25.40;;;2.80;99.90;;;;;;5076346;28;20094;-91
2023/12/06 07:56:40;;;;;;;53.28;27.38;;;2.80;99.90;;;;;;5075065;28;20072;-90
2023/12/06 07:59:06;;;;;;;47.53;26.77;;;2.80;99.90;;;;;;5075235;28;20048;-90
2023/12/06 08:01:32;;;;;;;39.33;26.00;;;2.80;99.90;;;;;;5058455;28;20088;-89
2023/12/06 08:03:58;;;;;;;42.43;24.00;;;2.80;99.90;;;;;;5058362;28;20049;-89
2023/12/06 08:06:24;;;;;;;42.13;24.42;;;2.80;99.90;;;;;;5074987;28;20041;-90
2023/12/06 08:08:53;;;;;;;55.17;26.83;;;2.90;99.90;;;;;;5057709;28;20040;-91
2023/12/06 08:11:22;;;;;;;54.33;27.77;;;2.80;99.90;;;;;;5058916;28;20052;-91
2023/12/06 08:13:48;;;;;;;52.28;26.35;;;2.80;99.90;;;;;;5058634;28;20048;-92
2023/12/06 08:16:13;;;;;;;49.60;26.80;;;2.80;99.90;;;;;;5074790;28;20071;-89
2023/12/06 08:18:39;;;;;;;42.63;25.90;;;2.80;99.90;;;;;;5074633;28;20048;-90
2023/12/06 08:21:08;;;;;;;43.78;25.85;;;2.80;99.90;;;;;;5076029;28;20049;-89
2023/12/06 08:23:34;;;;;;;34.60;24.05;;;2.90;99.90;;;;;;5075841;28;20048;-87
2023/12/06 08:26:00;;;;;;;47.78;27.67;;;2.80;99.90;;;;;;5079720;28;20044;-84
2023/12/06 08:28:26;;;;;;;41.10;26.00;;;2.80;99.90;;;;;;5075936;28;20048;-89
2023/12/06 08:30:52;;;;;;;42.97;25.23;;;2.90;99.90;;;;;;5074698;28;20131;-83
2023/12/06 08:33:19;;;;;;;37.20;26.03;;;2.90;99.90;;;;;;5057773;28;20083;-82
2023/12/06 08:35:45;;;;;;;44.42;25.45;;;2.90;99.90;;;;;;5075347;28;20083;-85
2023/12/06 08:38:11;;;;;;;46.33;26.60;;;2.90;99.90;;;;;;5075107;28;20131;-85
2023/12/06 08:40:37;;;;;;;42.53;25.50;;;2.90;99.90;;;;;;5074037;28;20049;-82
2023/12/06 08:43:03;;;;;;;61.80;29.77;;;2.90;99.90;;;;;;5074068;28;20097;-82
2023/12/06 08:45:29;;;;;;;39.83;26.23;;;2.90;99.90;;;;;;5074086;28;20123;-82
2023/12/06 08:47:54;;;;;;;48.37;26.57;;;2.90;99.90;;;;;;5075152;28;20049;-82
2023/12/06 08:50:21;;;;;;;46.40;27.33;;;2.90;99.90;;;;;;5074828;28;20082;-81
2023/12/06 08:52:46;;;;;;;35.10;23.70;;;2.90;99.90;;;;;;5075122;28;20421;-82
2023/12/06 08:55:12;;;;;;;33.23;23.50;;;2.90;99.90;;;;;;5073499;28;20056;-83
2023/12/06 08:57:39;;;;;;;39.78;24.38;;;3.00;99.90;;;;;;5074881;28;20051;-82
2023/12/06 09:00:07;;;;;;;37.38;24.85;;;3.00;99.90;;;;;;5074716;28;20077;-83
2023/12/06 09:02:36;;;;;;;38.60;24.58;;;3.00;99.90;;;;;;5073516;28;20451;-81
2023/12/06 09:05:02;;;;;;;36.17;25.00;;;3.10;99.90;;;;;;5073742;28;20531;-82
2023/12/06 09:07:27;;;;;;;49.13;26.80;;;3.00;99.90;;;;;;5074771;28;20171;-87
2023/12/06 09:09:53;;;;;;;37.20;24.83;;;3.00;99.90;;;;;;5074862;28;20052;-85
2023/12/06 09:12:20;;;;;;;32.50;22.87;;;3.10;99.90;;;;;;5073546;28;20096;-81
2023/12/06 09:14:46;;;;;;;35.22;23.33;;;3.10;99.90;;;;;;5074568;28;20149;-82
2023/12/06 09:17:12;;;;;;;41.77;24.27;;;3.00;99.90;;;;;;5073367;28;20091;-82
2023/12/06 09:19:38;;;;;;;34.03;22.33;;;3.10;99.90;;;;;;5073229;28;20059;-81
2023/12/06 09:22:05;;;;;;;34.40;22.80;;;3.10;99.90;;;;;;5072474;28;20045;-80
2023/12/06 09:24:31;;;;;;;36.50;24.00;;;3.10;99.90;;;;;;5073104;28;20053;-82
2023/12/06 09:26:56;;;;;;;40.73;25.27;;;3.10;99.90;;;;;;5073243;28;20094;-80
2023/12/06 09:29:22;;;;;;;31.73;22.90;;;3.10;99.90;;;;;;5056401;28;20282;-84
2023/12/06 09:31:48;;;;;;;30.20;21.33;;;3.20;99.90;;;;;;5074068;28;20084;-79
2023/12/06 09:34:14;;;;;;;41.00;25.60;;;3.20;99.90;;;;;;5073023;28;20060;-82
2023/12/06 09:36:39;;;;;;;31.17;21.37;;;3.10;99.90;;;;;;5073195;28;20147;-82
2023/12/06 09:39:05;;;;;;;41.87;25.80;;;3.20;99.90;;;;;;5056086;28;20441;-81
2023/12/06 09:41:37;;;;;;;40.80;25.15;;;3.20;99.90;;;;;;5111328;27;20392;-82
2023/12/06 09:44:03;;;;;;;35.70;21.70;;;3.20;99.90;;;;;;5109923;28;20044;-82
2023/12/06 09:46:29;;;;;;;33.50;22.60;;;3.20;99.90;;;;;;5110898;28;20047;-80
2023/12/06 09:48:55;;;;;;;35.37;22.30;;;3.20;99.90;;;;;;5110568;28;20369;-83
2023/12/06 09:51:22;;;;;;;37.40;21.83;;;3.20;99.90;;;;;;5110033;28;20111;-81
2023/12/06 09:53:47;;;;;;;38.15;22.67;;;3.20;99.90;;;;;;5109474;28;20063;-83
2023/12/06 09:56:13;;;;;;;38.90;23.07;;;3.30;99.90;;;;;;5108984;28;20040;-82
2023/12/06 09:58:40;;;;;;;36.50;23.30;;;3.30;99.90;;;;;;5109413;28;20048;-82
2023/12/06 10:01:06;;;;;;;30.45;19.45;;;3.30;99.90;;;;;;5110712;28;20050;-82
2023/12/06 10:03:32;;;;;;;34.87;22.87;;;3.30;99.90;;;;;;5110656;28;20048;-81
2023/12/06 10:05:59;;;;;;;32.13;20.47;;;3.40;99.90;;;;;;5110963;28;20408;-80
2023/12/06 10:08:25;;;;;;;26.80;19.48;;;3.40;99.90;;;;;;5110604;28;20051;-78
2023/12/06 10:11:08;;;;;;;33.63;20.33;;;3.40;99.90;;;;;;5110728;28;20464;-78
2023/12/06 10:13:35;;;;;;;29.50;19.50;;;3.40;99.90;;;;;;5110502;28;20047;-78
2023/12/06 10:16:01;;;;;;;27.77;18.88;;;3.50;99.90;;;;;;5110708;28;20067;-78
2023/12/06 10:18:27;;;;;;;25.77;17.23;;;3.40;99.90;;;;;;5110447;28;20051;-80
2023/12/06 10:20:54;;;;;;;26.37;18.00;;;3.40;99.90;;;;;;5110656;28;20425;-80
2023/12/06 10:23:19;;;;;;;25.05;16.55;;;3.50;99.90;;;;;;5110302;28;20044;-83
2023/12/06 10:25:49;;;;;;;27.43;18.10;;;3.50;99.90;;;;;;5109445;28;20046;-83
2023/12/06 10:28:17;;;;;;;23.33;15.85;;;3.50;99.90;;;;;;5110349;28;20052;-83
2023/12/06 10:30:43;;;;;;;28.70;17.25;;;3.50;99.90;;;;;;5110348;28;20083;-83
2023/12/06 10:33:11;;;;;;;24.25;15.25;;;3.50;99.90;;;;;;5109021;28;20126;-79
2023/12/06 10:35:37;;;;;;;22.85;16.15;;;3.60;99.90;;;;;;5110195;28;20127;-78
2023/12/06 10:38:05;;;;;;;27.60;16.98;;;3.60;99.90;;;;;;5109251;28;20087;-83
2023/12/06 10:40:31;;;;;;;25.38;17.35;;;3.60;99.90;;;;;;5110720;28;20095;-86
2023/12/06 10:43:07;;;;;;;22.63;15.70;;;3.50;99.90;;;;;;5110256;28;20082;-84
2023/12/06 10:45:34;;;;;;;25.55;16.15;;;3.50;99.90;;;;;;5110022;28;20809;-88
2023/12/06 10:48:04;;;;;;;19.50;15.50;;;3.60;99.90;;;;;;5109106;28;20216;-87
2023/12/06 10:50:31;;;;;;;21.40;15.73;;;3.60;99.90;;;;;;5108922;28;20055;-79
2023/12/06 10:53:00;;;;;;;21.55;15.15;;;3.60;99.90;;;;;;5096645;28;20050;-81
2023/12/06 10:55:29;;;;;;;22.67;15.43;;;3.60;99.90;;;;;;5096249;28;20056;-87
2023/12/06 10:57:57;;;;;;;19.40;13.98;;;3.60;99.90;;;;;;5096314;28;20048;-85
2023/12/06 11:00:23;;;;;;;25.15;16.48;;;3.60;99.90;;;;;;5093046;28;20036;-85
2023/12/06 11:02:49;;;;;;;21.45;14.48;;;3.60;99.90;;;;;;5093111;28;20122;-85
2023/12/06 11:05:19;;;;;;;24.27;15.87;;;3.60;99.90;;;;;;5094968;28;20128;-85
2023/12/06 11:07:54;;;;;;;24.13;16.45;;;3.60;99.90;;;;;;5095096;28;20048;-86
2023/12/06 11:10:55;;;;;;;26.50;16.38;;;3.70;99.90;;;;;;5094424;28;20124;-84
2023/12/06 11:13:38;;;;;;;22.52;15.20;;;3.70;99.90;;;;;;5092782;28;20052;-80
2023/12/06 11:16:37;;;;;;;22.00;15.50;;;3.80;99.90;;;;;;5094611;28;20074;-88
2023/12/06 11:19:03;;;;;;;24.77;15.43;;;3.70;99.90;;;;;;5093425;28;20040;-82
2023/12/06 11:21:30;;;;;;;23.13;15.60;;;3.70;99.90;;;;;;5094635;28;20365;-82
2023/12/06 11:23:57;;;;;;;19.73;14.77;;;3.80;99.90;;;;;;5093329;28;20577;-80
2023/12/06 11:26:23;;;;;;;25.70;15.15;;;3.80;99.90;;;;;;5094396;28;20048;-81
2023/12/06 11:28:50;;;;;;;20.93;14.70;;;3.80;99.90;;;;;;5094675;28;20089;-84
2023/12/06 11:31:17;;;;;;;23.30;15.13;;;3.80;99.90;;;;;;5093698;28;20048;-81
2023/12/06 11:33:56;;;;;;;23.80;16.10;;;3.80;99.90;;;;;;5092110;28;20040;-82
2023/12/06 11:36:25;;;;;;;23.30;15.48;;;3.80;99.90;;;;;;5094421;28;20051;-80
2023/12/06 11:38:51;;;;;;;24.60;16.17;;;3.80;99.90;;;;;;5094245;28;20453;-86
2023/12/06 11:41:17;;;;;;;23.25;14.80;;;3.80;99.90;;;;;;5092849;28;20063;-82
2023/12/06 11:43:51;;;;;;;26.08;15.18;;;3.80;99.90;;;;;;5093441;28;20051;-80
2023/12/06 11:46:18;;;;;;;25.75;15.90;;;3.90;99.90;;;;;;5092917;28;20057;-83
2023/12/06 11:48:48;;;;;;;21.10;14.68;;;3.80;99.90;;;;;;5093297;28;20110;-81
2023/12/06 11:51:19;;;;;;;24.83;15.80;;;3.90;99.90;;;;;;5093615;28;20051;-78
2023/12/06 11:53:45;;;;;;;20.58;16.20;;;3.90;99.90;;;;;;5095236;28;20044;-77
2023/12/06 11:56:11;;;;;;;28.90;19.85;;;3.90;99.90;;;;;;5094339;28;20047;-78
2023/12/06 11:58:38;;;;;;;23.80;15.33;;;3.90;99.90;;;;;;5077072;28;20379;-78
2023/12/06 12:01:05;;;;;;;20.23;13.50;;;3.90;99.90;;;;;;5093888;28;20059;-78
2023/12/06 12:03:31;;;;;;;18.83;13.85;;;4.00;99.90;;;;;;5092823;28;20051;-79
2023/12/06 12:05:58;;;;;;;20.60;14.65;;;4.00;99.90;;;;;;5093666;28;20073;-78
2023/12/06 12:08:24;;;;;;;22.13;14.85;;;3.90;99.90;;;;;;5094595;28;20044;-79
2023/12/06 12:10:52;;;;;;;19.27;13.93;;;4.00;99.90;;;;;;5094755;28;20048;-82
2023/12/06 12:13:19;;;;;;;18.05;14.40;;;4.00;99.90;;;;;;5093779;28;20477;-87
2023/12/06 12:15:55;;;;;;;17.55;14.45;;;3.90;99.90;;;;;;5094623;28;20494;-81
2023/12/06 12:18:21;;;;;;;20.55;15.90;;;4.00;99.90;;;;;;5091318;28;20055;-80
2023/12/06 12:20:47;;;;;;;18.88;15.10;;;4.00;99.90;;;;;;5091865;28;20044;-81
2023/12/06 12:23:13;;;;;;;19.37;13.97;;;4.00;99.90;;;;;;5092598;28;20063;-82
2023/12/06 12:25:49;;;;;;;17.87;12.17;;;4.00;99.90;;;;;;5093508;28;20055;-92
2023/12/06 12:28:19;;;;;;;19.77;12.50;;;4.00;99.90;;;;;;5093039;28;20102;-82
2023/12/06 12:30:54;;;;;;;16.38;10.73;;;4.00;99.90;;;;;;5092333;28;20089;-82
2023/12/06 12:33:20;;;;;;;15.85;10.27;;;4.00;99.90;;;;;;5093276;28;20225;-84